createdAt,value
2023-04-21T00:00:14.674Z,22.1
2023-04-21T00:06:08.574Z,22.1
2023-04-21T00:12:00.270Z,22
2023-04-21T00:17:51.464Z,22
2023-04-21T00:23:43.121Z,22
2023-04-21T00:29:34.616Z,22
2023-04-21T00:35:10.791Z,22
2023-04-21T00:41:03.056Z,21.9
2023-04-21T00:46:39.399Z,21.9
2023-04-21T00:52:15.720Z,21.9
2023-04-21T00:57:52.399Z,21.9
2023-04-21T01:03:30.554Z,21.9
2023-04-21T01:09:22.818Z,21.9
2023-04-21T01:14:58.668Z,21.9
2023-04-21T01:20:50.634Z,21.9
2023-04-21T01:26:41.878Z,21.9
2023-04-21T01:32:33.569Z,21.9
2023-04-21T01:38:25.309Z,21.9
2023-04-21T01:43:45.803Z,21.9
2023-04-21T01:49:07.135Z,21.8
2023-04-21T01:54:59.115Z,21.8
2023-04-21T02:00:19.408Z,21.8
2023-04-21T02:06:13.149Z,21.8
2023-04-21T02:12:04.623Z,21.8
2023-04-21T02:18:13.381Z,21.8
2023-04-21T02:24:04.936Z,21.8
2023-04-21T02:29:41.422Z,21.8
2023-04-21T02:35:39.273Z,21.8
2023-04-21T02:41:30.837Z,21.8
2023-04-21T02:47:22.517Z,21.7
2023-04-21T02:53:15.265Z,21.8
2023-04-21T02:59:06.684Z,21.7
2023-04-21T03:04:59.778Z,21.7
2023-04-21T03:10:50.983Z,21.7
2023-04-21T03:16:43.066Z,21.7
2023-04-21T03:22:35.742Z,21.7
2023-04-21T03:28:27.567Z,21.6
2023-04-21T03:34:05.031Z,21.6
2023-04-21T03:40:08.761Z,21.7
2023-04-21T03:46:00.628Z,21.6
2023-04-21T03:51:54.564Z,21.6
2023-04-21T03:57:46.063Z,21.6
2023-04-21T04:03:39.997Z,21.6
2023-04-21T04:09:32.464Z,21.6
2023-04-21T04:14:53.289Z,21.6
2023-04-21T04:20:45.636Z,21.6
2023-04-21T04:26:36.764Z,21.6
2023-04-21T04:32:13.403Z,21.6
2023-04-21T04:38:07.690Z,21.6
2023-04-21T04:44:00.604Z,21.6
2023-04-21T04:49:56.031Z,21.6
2023-04-21T04:55:46.367Z,21.6
2023-04-21T05:01:37.355Z,21.6
2023-04-21T05:07:16.384Z,21.6
2023-04-21T05:13:07.285Z,21.6
2023-04-21T05:18:59.983Z,21.6
2023-04-21T05:24:54.030Z,21.6
2023-04-21T05:30:48.798Z,21.5
2023-04-21T05:36:43.643Z,21.5
2023-04-21T05:42:36.007Z,21.5
2023-04-21T05:48:13.711Z,21.5
2023-04-21T05:53:19.306Z,21.5
2023-04-21T05:59:11.115Z,21.5
2023-04-21T06:04:50.156Z,21.5
2023-04-21T06:10:27.218Z,21.4
2023-04-21T06:16:18.868Z,21.4
2023-04-21T06:22:10.630Z,21.4
2023-04-21T06:27:46.824Z,21.4
2023-04-21T06:33:11.315Z,21.4
2023-04-21T06:39:03.046Z,32.5
2023-04-21T06:44:55.113Z,38.2
2023-04-21T06:50:31.319Z,35.1
2023-04-21T06:56:07.060Z,45.9
2023-04-21T07:02:01.849Z,42.8
2023-04-21T07:07:55.453Z,37.6
2023-04-21T07:13:46.822Z,40
2023-04-21T07:19:38.723Z,49.6
2023-04-21T07:25:30.892Z,43.1
2023-04-21T07:31:06.321Z,41.2
2023-04-21T07:36:57.511Z,52.3
2023-04-21T07:42:49.898Z,47
2023-04-21T07:48:40.885Z,46.3
2023-04-21T07:54:32.310Z,48.5
2023-04-21T08:00:24.188Z,46.1
2023-04-21T08:06:07.589Z,42.1
2023-04-21T08:12:01.122Z,38.8
2023-04-21T08:17:37.626Z,36.1
2023-04-21T08:23:17.901Z,34.1
2023-04-21T08:28:54.222Z,32.4
2023-04-21T08:35:01.044Z,31
2023-04-21T08:41:17.565Z,47.6
2023-04-21T08:47:12.691Z,44.3
2023-04-21T08:53:07.018Z,40.5
2023-04-21T08:59:29.157Z,54.3
2023-04-21T09:04:56.139Z,57.1
2023-04-21T09:10:34.672Z,56.4
2023-04-21T09:16:28.598Z,58.3
2023-04-21T09:22:05.460Z,59
2023-04-21T09:27:59.457Z,56.4
2023-04-21T09:34:12.168Z,50.7
2023-04-21T09:40:45.933Z,51.1
2023-04-21T09:47:03.405Z,52.2
2023-04-21T09:53:40.270Z,46.2
2023-04-21T09:59:31.222Z,41.9
2023-04-21T10:05:26.781Z,38.8
2023-04-21T10:11:18.664Z,36.4
2023-04-21T10:17:12.482Z,49.4
2023-04-21T10:23:04.920Z,49.7
2023-04-21T10:28:56.694Z,44.8
2023-04-21T10:35:00.800Z,40.9
2023-04-21T10:40:57.922Z,46.3
2023-04-21T10:46:48.856Z,60
2023-04-21T10:52:40.894Z,56.4
2023-04-21T10:58:32.817Z,49.3
2023-04-21T11:04:28.466Z,44.6
2023-04-21T11:10:22.786Z,40.9
2023-04-21T11:16:14.287Z,38.1
2023-04-21T11:22:06.077Z,47.6
2023-04-21T11:27:57.214Z,64.7
2023-04-21T11:33:33.513Z,61.5
2023-04-21T11:39:25.695Z,62.1
2023-04-21T11:45:17.261Z,63
2023-04-21T11:51:09.899Z,60.8
2023-04-21T11:56:46.215Z,63.7
2023-04-21T12:02:38.269Z,62.6
2023-04-21T12:08:17.848Z,64
2023-04-21T12:14:08.910Z,64.8
2023-04-21T12:20:02.328Z,62.7
2023-04-21T12:25:54.894Z,62.2
2023-04-21T12:31:49.316Z,61.9
2023-04-21T12:37:43.063Z,54.9
2023-04-21T12:43:34.680Z,49.1
2023-04-21T12:49:28.673Z,44.6
2023-04-21T12:55:05.167Z,41.5
2023-04-21T13:01:09.071Z,38.9
2023-04-21T13:07:02.803Z,36.8
2023-04-21T13:12:39.866Z,35.3
2023-04-21T13:18:31.619Z,33.9
2023-04-21T13:24:25.314Z,32.8
2023-04-21T13:30:16.431Z,31.8
2023-04-21T13:36:12.778Z,30.9
2023-04-21T13:41:51.630Z,30.3
2023-04-21T13:47:44.470Z,29.6
2023-04-21T13:53:38.111Z,29.1
2023-04-21T13:59:15.182Z,28.6
2023-04-21T14:04:55.008Z,28.2
2023-04-21T14:17:13.168Z,27.4
2023-04-21T14:23:04.646Z,27.2
2023-04-21T14:28:56.440Z,26.9
2023-04-21T14:34:34.035Z,26.7
2023-04-21T14:40:12.937Z,26.5
2023-04-21T14:45:51.405Z,26.3
2023-04-21T14:51:40.322Z,26.2
2023-04-21T14:57:47.559Z,26
2023-04-21T15:03:27.471Z,25.9
2023-04-21T15:09:08.973Z,25.8
2023-04-21T15:14:45.281Z,25.6
2023-04-21T15:20:29.647Z,25.6
2023-04-21T15:26:23.459Z,25.4
2023-04-21T15:31:59.900Z,25.4
2023-04-21T15:37:36.223Z,25.3
2023-04-21T15:43:25.684Z,25.2
2023-04-21T15:49:02.796Z,25.1
2023-04-21T15:54:55.561Z,25.1
2023-04-21T16:00:48.980Z,25
2023-04-21T16:06:29.127Z,24.9
2023-04-21T16:12:21.418Z,24.9
2023-04-21T16:18:49.779Z,24.9
2023-04-21T16:24:42.005Z,24.8
2023-04-21T16:30:35.047Z,24.8
2023-04-21T16:36:30.063Z,24.7
2023-04-21T16:42:21.566Z,24.6
2023-04-21T16:48:15.709Z,24.6
2023-04-21T16:54:07.349Z,24.6
2023-04-21T16:59:57.943Z,24.6
2023-04-21T17:05:52.452Z,24.6
2023-04-21T17:11:43.792Z,24.5
2023-04-21T17:17:35.938Z,24.5
2023-04-21T17:23:28.701Z,24.4
2023-04-21T17:29:37.694Z,24.4
2023-04-21T17:36:12.274Z,24.4
2023-04-21T17:42:04.154Z,24.4
2023-04-21T17:47:56.052Z,24.3
2023-04-21T17:53:32.062Z,24.3
2023-04-21T17:59:24.488Z,24.3
2023-04-21T18:05:03.260Z,24.3
2023-04-21T18:10:38.839Z,24.2
2023-04-21T18:16:16.441Z,24.2
2023-04-21T18:21:53.354Z,24.2
2023-04-21T18:27:43.949Z,24.1
2023-04-21T18:33:05.393Z,24.1
2023-04-21T18:38:40.284Z,24.1
2023-04-21T18:43:46.200Z,24.1
2023-04-21T18:49:23.982Z,24
2023-04-21T18:54:59.802Z,24
2023-04-21T19:00:35.748Z,24
2023-04-21T19:06:14.392Z,23.9
2023-04-21T19:12:21.618Z,23.9
2023-04-21T19:18:26.739Z,23.9
2023-04-21T19:24:18.339Z,23.9
2023-04-21T19:30:09.830Z,23.9
2023-04-21T19:36:02.703Z,23.8
2023-04-21T19:41:54.254Z,23.8
2023-04-21T19:47:46.358Z,23.8
2023-04-21T19:53:37.844Z,23.8
2023-04-21T20:00:02.280Z,23.8
2023-04-21T20:05:57.207Z,23.6
2023-04-21T20:11:47.663Z,23.6
2023-04-21T20:17:40.105Z,23.6
2023-04-21T20:23:31.839Z,23.6
2023-04-21T20:29:09.705Z,23.5
2023-04-21T20:35:01.638Z,23.5
2023-04-21T20:40:37.713Z,23.4
2023-04-21T20:46:27.315Z,23.4
2023-04-21T20:52:19.670Z,23.4
2023-04-21T20:58:10.535Z,23.4
2023-04-21T21:04:05.911Z,23.4
2023-04-21T21:09:58.449Z,23.3
2023-04-21T21:15:52.505Z,23.3
2023-04-21T21:21:28.641Z,23.3
2023-04-21T21:27:19.894Z,23.3
2023-04-21T21:33:11.731Z,23.3
2023-04-21T21:39:03.368Z,23.2
2023-04-21T21:44:55.355Z,23.2
2023-04-21T21:50:51.724Z,23.1
2023-04-21T21:56:28.008Z,23.2
2023-04-21T22:02:23.394Z,23.1
2023-04-21T22:08:18.324Z,23.1
2023-04-21T22:14:21.545Z,23.1
2023-04-21T22:20:14.260Z,23.1
2023-04-21T22:26:05.157Z,23.1
2023-04-21T22:31:41.607Z,23.1
2023-04-21T22:37:33.349Z,23.1
2023-04-21T22:43:23.852Z,23
2023-04-21T22:49:16.064Z,23
2023-04-21T22:55:08.049Z,23
2023-04-21T23:01:00.491Z,22.9
2023-04-21T23:06:53.740Z,22.9
2023-04-21T23:12:30.428Z,22.9
2023-04-21T23:18:22.948Z,22.9
2023-04-21T23:24:14.250Z,22.9
2023-04-21T23:30:06.302Z,22.9
2023-04-21T23:35:58.137Z,22.9
2023-04-21T23:41:49.711Z,22.9
2023-04-21T23:47:42.003Z,22.8
2023-04-21T23:53:19.367Z,22.8
2023-04-21T23:59:11.785Z,22.8
